Amarillo, Texas
Current Conditions -  °F | °C
As of 9:53 AM on Friday 31 Oct 2014 (Local Time) from KAMA Reporting Station
Clear Clear  
Wind Chill: 41°   Ceiling: Unl
Heat Index: 46°   Visibility: 10mi
Dew Point: 34°   Wind: 9mph
Humidity: 63%   Direction: 30°NNE
Pressure: 30.48"   Gusts: NA
Location:  35.21°N, 101.83°W
Report Text: KAMA 311453Z 03008KT 10SM CLR 08/01 A3048 RMK AO2 SLP310 T00780011 53016
Loading
Personal Weather Stations






























Interactive Weather Map
Tropical Storm Tracking
New forecast layout! Learn more

10-Day Weather Forecast

Advertisements
Track Severe Weather on mobile